createdAt,value
2018-06-28T00:02:24.433Z,102624.27
2018-06-28T00:05:28.808Z,102623.94
2018-06-28T00:08:33.184Z,102621.41
2018-06-28T00:11:37.573Z,102621.09
2018-06-28T00:14:41.940Z,102626.45
2018-06-28T00:17:46.309Z,102620.66
2018-06-28T00:20:50.678Z,102628.45
2018-06-28T00:23:55.064Z,102625.52
2018-06-28T00:26:59.442Z,102626.75
2018-06-28T00:30:03.932Z,102625.08
2018-06-28T00:33:08.330Z,102621.91
2018-06-28T00:36:12.713Z,102618.73
2018-06-28T00:39:17.090Z,102617.78
2018-06-28T00:42:21.478Z,102615.38
2018-06-28T00:45:25.857Z,102615.04
2018-06-28T00:48:30.256Z,102611.05
2018-06-28T00:51:34.641Z,102607.66
2018-06-28T00:54:39.016Z,102613.44
2018-06-28T00:57:43.434Z,102609.54
2018-06-28T01:00:47.882Z,102616.93
2018-06-28T01:03:52.218Z,102617.66
2018-06-28T01:06:56.604Z,102617.34
2018-06-28T01:10:01.837Z,102615.75
2018-06-28T01:13:06.753Z,102620.34
2018-06-28T01:16:11.109Z,102613.16
2018-06-28T01:19:15.489Z,102622.33
2018-06-28T01:22:19.857Z,102618.20
2018-06-28T01:25:24.278Z,102617.23
2018-06-28T01:28:28.745Z,102616.28
2018-06-28T01:31:33.133Z,102609.03
2018-06-28T01:34:37.485Z,102611.98
2018-06-28T01:37:41.877Z,102611.02
2018-06-28T01:40:46.378Z,102612.05
2018-06-28T01:43:50.749Z,102608.25
2018-06-28T01:46:55.202Z,102603.80
2018-06-28T01:49:59.514Z,102608.45
2018-06-28T01:53:03.887Z,102602.61
2018-06-28T01:56:08.298Z,102606.16
2018-06-28T01:59:12.681Z,102608.38
2018-06-28T02:02:17.065Z,102606.37
2018-06-28T02:05:21.452Z,102595.63
2018-06-28T02:08:25.827Z,102594.27
2018-06-28T02:11:30.211Z,102598.70
2018-06-28T02:14:34.590Z,102598.70
2018-06-28T02:17:38.960Z,102606.37
2018-06-28T02:20:43.353Z,102606.77
2018-06-28T02:23:47.734Z,102595.84
2018-06-28T02:26:52.104Z,102603.84
2018-06-28T02:29:56.509Z,102598.06
2018-06-28T02:33:00.922Z,102595.53
2018-06-28T02:36:05.477Z,102594.91
2018-06-28T02:39:09.900Z,102583.13
2018-06-28T02:42:14.265Z,102587.13
2018-06-28T02:45:18.649Z,102584.39
2018-06-28T02:48:23.075Z,102578.20
2018-06-28T02:51:27.465Z,102582.92
2018-06-28T02:54:31.833Z,102586.51
2018-06-28T02:57:36.233Z,102582.41
2018-06-28T03:00:40.598Z,102584.49
2018-06-28T03:03:44.988Z,102584.90
2018-06-28T03:06:49.365Z,102583.63
2018-06-28T03:09:53.743Z,102587.19
2018-06-28T03:12:58.141Z,102586.16
2018-06-28T03:16:02.574Z,102586.98
2018-06-28T03:19:07.037Z,102586.23
2018-06-28T03:22:11.462Z,102589.37
2018-06-28T03:25:15.961Z,102592.11
2018-06-28T03:28:20.392Z,102595.05
2018-06-28T03:31:24.840Z,102594.22
2018-06-28T03:34:29.304Z,102596.95
2018-06-28T03:37:33.721Z,102601.67
2018-06-28T03:40:38.173Z,102599.08
2018-06-28T03:43:42.571Z,102600.95
2018-06-28T03:46:46.966Z,102607.28
2018-06-28T03:49:51.357Z,102605.16
2018-06-28T03:52:55.769Z,102603.53
2018-06-28T03:56:00.136Z,102599.80
2018-06-28T03:59:05.002Z,102601.61
2018-06-28T04:02:09.388Z,102603.39
2018-06-28T04:05:13.887Z,102602.81
2018-06-28T04:08:18.307Z,102608.17
2018-06-28T04:11:22.691Z,102600.31
2018-06-28T04:14:27.116Z,102602.97
2018-06-28T04:17:31.514Z,102605.81
2018-06-28T04:20:35.969Z,102608.88
2018-06-28T04:23:40.342Z,102602.48
2018-06-28T04:26:44.748Z,102602.38
2018-06-28T04:29:49.149Z,102593.05
2018-06-28T04:32:53.541Z,102600.00
2018-06-28T04:35:57.942Z,102594.03
2018-06-28T04:39:02.358Z,102602.23
2018-06-28T04:42:06.722Z,102600.03
2018-06-28T04:45:11.155Z,102600.05
2018-06-28T04:48:15.562Z,102601.42
2018-06-28T04:51:20.128Z,102605.96
2018-06-28T04:54:24.538Z,102607.54
2018-06-28T04:57:28.991Z,102606.56
2018-06-28T05:00:33.367Z,102601.58
2018-06-28T05:03:37.790Z,102585.61
2018-06-28T05:06:42.190Z,102593.25
2018-06-28T05:09:46.574Z,102588.91
2018-06-28T05:12:50.969Z,102587.38
2018-06-28T05:15:55.445Z,102585.05
2018-06-28T05:18:59.847Z,102587.73
2018-06-28T05:22:04.257Z,102581.44
2018-06-28T05:25:08.396Z,102582.25
2018-06-28T05:28:12.777Z,102581.97
2018-06-28T05:31:17.637Z,102578.44
2018-06-28T05:34:22.389Z,102574.75
2018-06-28T05:37:26.814Z,102577.83
2018-06-28T05:40:33.091Z,102571.31
2018-06-28T05:43:38.585Z,102568.87
2018-06-28T05:46:44.505Z,102564.97
2018-06-28T05:49:51.083Z,102560.56
2018-06-28T05:53:15.108Z,102559.52
2018-06-28T05:56:59.064Z,102573.44
2018-06-28T06:01:31.747Z,102571.38
2018-06-28T06:04:36.206Z,102570.25
2018-06-28T06:07:49.650Z,102572.66
2018-06-28T06:14:55.148Z,102570.20
2018-06-28T06:18:07.486Z,102571.35
2018-06-28T06:25:44.279Z,102561.47
2018-06-28T06:29:13.586Z,102562.59
2018-06-28T07:06:31.518Z,102557.13
2018-06-28T07:09:35.891Z,102550.18
2018-06-28T07:12:40.265Z,102559.26
2018-06-28T07:15:44.629Z,102552.13
2018-06-28T07:18:49.263Z,102552.66
2018-06-28T07:21:53.654Z,102554.00
2018-06-28T07:24:58.073Z,102545.09
2018-06-28T07:28:02.438Z,102550.62
2018-06-28T07:31:06.807Z,102546.45
2018-06-28T07:34:11.246Z,102545.06
2018-06-28T07:37:15.585Z,102550.80
2018-06-28T07:40:19.952Z,102544.70
2018-06-28T07:43:24.350Z,102541.82
2018-06-28T07:46:28.747Z,102541.36
2018-06-28T07:49:33.170Z,102543.47
2018-06-28T07:52:37.549Z,102539.55
2018-06-28T07:55:41.933Z,102540.52
2018-06-28T07:58:46.291Z,102534.61
2018-06-28T08:01:50.709Z,102539.71
2018-06-28T08:04:55.122Z,102527.72
2018-06-28T08:07:59.473Z,102525.37
2018-06-28T08:11:03.922Z,102532.11
2018-06-28T08:14:08.341Z,102525.84
2018-06-28T08:17:12.750Z,102527.30
2018-06-28T08:20:17.146Z,102525.48
2018-06-28T08:23:21.545Z,102524.74
2018-06-28T08:26:26.018Z,102529.62
2018-06-28T08:29:30.401Z,102520.27
2018-06-28T08:32:34.889Z,102511.73
2018-06-28T08:35:39.282Z,102509.88
2018-06-28T08:38:43.657Z,102516.62
2018-06-28T08:41:48.058Z,102515.27
2018-06-28T08:44:52.458Z,102509.44
2018-06-28T08:47:56.838Z,102510.95
2018-06-28T08:51:01.251Z,102505.42
2018-06-28T08:54:05.853Z,102497.13
2018-06-28T08:57:10.273Z,102500.77
2018-06-28T09:00:14.661Z,102496.05
2018-06-28T09:03:19.157Z,102496.63
2018-06-28T09:06:23.512Z,102495.30
2018-06-28T09:09:27.927Z,102487.26
2018-06-28T09:12:32.326Z,102490.31
2018-06-28T09:15:36.774Z,102498.94
2018-06-28T09:18:41.158Z,102486.42
2018-06-28T09:21:45.552Z,102497.55
2018-06-28T09:24:49.966Z,102484.76
2018-06-28T09:27:54.369Z,102491.14
2018-06-28T09:30:58.824Z,102495.86
2018-06-28T09:34:03.261Z,102498.37
2018-06-28T09:37:07.663Z,102486.67
2018-06-28T09:40:12.091Z,102488.64
2018-06-28T09:43:16.469Z,102480.85
2018-06-28T09:46:21.237Z,102474.16
2018-06-28T09:49:25.611Z,102483.63
2018-06-28T09:52:29.996Z,102482.77
2018-06-28T09:55:34.422Z,102478.34
2018-06-28T09:58:38.845Z,102480.28
2018-06-28T10:01:43.256Z,102471.08
2018-06-28T10:04:47.657Z,102469.36
2018-06-28T10:07:52.134Z,102465.46
2018-06-28T10:10:57.648Z,102459.31
2018-06-28T10:14:02.048Z,102455.67
2018-06-28T10:17:06.606Z,102446.73
2018-06-28T10:20:11.007Z,102446.11
2018-06-28T10:23:15.404Z,102445.83
2018-06-28T10:26:19.806Z,102441.91
2018-06-28T10:29:24.184Z,102441.38
2018-06-28T10:32:28.713Z,102430.23
2018-06-28T10:35:33.077Z,102436.09
2018-06-28T10:38:37.795Z,102434.41
2018-06-28T10:41:42.232Z,102429.59
2018-06-28T10:44:46.675Z,102423.48
2018-06-28T10:47:51.080Z,102418.95
2018-06-28T10:50:55.529Z,102423.66
2018-06-28T10:53:59.980Z,102421.51
2018-06-28T10:57:04.441Z,102424.84
2018-06-28T11:00:08.834Z,102416.74
2018-06-28T11:03:13.338Z,102411.46
2018-06-28T11:06:17.754Z,102407.86
2018-06-28T11:09:22.186Z,102402.52
2018-06-28T11:12:26.639Z,102404.20
2018-06-28T11:15:31.033Z,102395.87
2018-06-28T11:18:35.476Z,102398.63
2018-06-28T11:21:39.897Z,102394.76
2018-06-28T11:24:44.333Z,102400.34
2018-06-28T11:27:48.793Z,102393.70
2018-06-28T11:30:53.007Z,102389.55
2018-06-28T11:33:57.464Z,102382.02
2018-06-28T11:37:01.835Z,102379.44
2018-06-28T11:40:06.317Z,102374.61
2018-06-28T11:43:10.722Z,102378.99
2018-06-28T11:46:15.149Z,102370.11
2018-06-28T11:49:19.557Z,102375.13
2018-06-28T11:52:24.047Z,102380.39
2018-06-28T11:55:28.405Z,102367.88
2018-06-28T11:58:32.850Z,102367.09
2018-06-28T12:01:37.269Z,102374.64
2018-06-28T12:04:41.701Z,102374.38
2018-06-28T12:07:46.133Z,102368.22
2018-06-28T12:10:50.552Z,102364.02
2018-06-28T12:13:54.961Z,102358.20
2018-06-28T12:16:59.352Z,102358.82
2018-06-28T12:20:03.857Z,102352.72
2018-06-28T12:23:08.553Z,102351.50
2018-06-28T12:26:12.986Z,102339.99
2018-06-28T12:29:17.385Z,102339.63
2018-06-28T12:32:21.805Z,102330.12
2018-06-28T12:35:26.244Z,102323.34
2018-06-28T12:38:31.843Z,102321.01
2018-06-28T12:41:36.325Z,102322.06
2018-06-28T12:44:40.729Z,102312.95
2018-06-28T12:48:00.877Z,102308.25
2018-06-28T12:51:05.286Z,102304.91
2018-06-28T12:54:09.729Z,102300.48
2018-06-28T12:57:14.161Z,102295.48
2018-06-28T13:00:19.148Z,102295.19
2018-06-28T13:03:23.535Z,102289.31
2018-06-28T13:06:28.010Z,102279.34
2018-06-28T13:09:32.450Z,102277.66
2018-06-28T13:12:36.948Z,102275.41
2018-06-28T13:15:41.406Z,102278.17
2018-06-28T13:18:46.634Z,102268.41
2018-06-28T13:21:51.045Z,102266.97
2018-06-28T13:24:55.458Z,102263.87
2018-06-28T13:27:59.872Z,102262.69
2018-06-28T13:31:04.448Z,102248.89
2018-06-28T13:34:08.893Z,102254.08
2018-06-28T13:37:13.366Z,102246.75
2018-06-28T13:40:17.766Z,102243.91
2018-06-28T13:43:22.286Z,102237.22
2018-06-28T13:46:26.696Z,102225.41
2018-06-28T13:49:31.109Z,102224.30
2018-06-28T13:52:35.516Z,102222.02
2018-06-28T13:55:39.925Z,102224.02
2018-06-28T13:58:44.352Z,102222.31
2018-06-28T14:01:48.744Z,102211.95
2018-06-28T14:04:53.169Z,102203.70
2018-06-28T14:07:57.621Z,102199.14
2018-06-28T14:11:02.004Z,102198.63
2018-06-28T14:14:06.487Z,102194.85
2018-06-28T14:17:10.957Z,102184.77
2018-06-28T14:20:15.392Z,102194.14
2018-06-28T14:23:19.877Z,102188.28
2018-06-28T14:26:24.300Z,102188.94
2018-06-28T14:29:28.717Z,102173.68
2018-06-28T14:32:33.097Z,102181.28
2018-06-28T14:35:37.525Z,102172.77
2018-06-28T14:38:41.932Z,102173.25
2018-06-28T14:41:46.332Z,102168.27
2018-06-28T14:44:50.730Z,102163.23
2018-06-28T14:47:55.137Z,102156.80
2018-06-28T14:50:59.520Z,102154.77
2018-06-28T14:54:03.886Z,102148.64
2018-06-28T14:57:08.264Z,102146.09
2018-06-28T15:00:12.637Z,102142.22
2018-06-28T15:03:16.992Z,102133.70
2018-06-28T15:06:21.361Z,102141.70
2018-06-28T15:09:25.784Z,102135.11
2018-06-28T15:12:30.191Z,102127.48
2018-06-28T15:15:34.578Z,102128.23
2018-06-28T15:18:39.002Z,102131.87
2018-06-28T15:21:43.540Z,102129.70
2018-06-28T15:24:47.982Z,102121.09
2018-06-28T15:27:52.380Z,102121.29
2018-06-28T15:30:56.468Z,102113.77
2018-06-28T15:34:00.885Z,102107.17
2018-06-28T15:37:05.272Z,102106.76
2018-06-28T15:40:09.680Z,102108.65
2018-06-28T15:43:14.070Z,102104.28
2018-06-28T15:46:18.473Z,102097.83
2018-06-28T15:49:22.886Z,102094.87
2018-06-28T15:52:27.324Z,102092.22
2018-06-28T15:55:31.732Z,102089.34
2018-06-28T15:58:36.137Z,102089.49
2018-06-28T16:01:40.512Z,102087.91
2018-06-28T16:04:44.898Z,102082.31
2018-06-28T16:07:49.257Z,102075.43
2018-06-28T16:10:53.674Z,102072.87
2018-06-28T16:13:58.186Z,102068.00
2018-06-28T16:17:02.661Z,102072.94
2018-06-28T16:20:07.098Z,102067.77
2018-06-28T16:23:11.482Z,102060.44
2018-06-28T16:26:15.880Z,102057.28
2018-06-28T16:29:20.272Z,102050.95
2018-06-28T16:32:24.642Z,102063.20
2018-06-28T16:35:28.748Z,102055.22
2018-06-28T16:38:33.124Z,102056.63
2018-06-28T16:41:37.517Z,102054.59
2018-06-28T16:44:41.908Z,102048.30
2018-06-28T16:47:46.284Z,102052.32
2018-06-28T16:50:50.710Z,102050.45
2018-06-28T16:53:55.090Z,102048.75
2018-06-28T16:56:59.477Z,102043.45
2018-06-28T17:00:03.963Z,102039.50
2018-06-28T17:03:10.558Z,102040.78
2018-06-28T17:06:14.955Z,102038.98
2018-06-28T17:09:19.355Z,102038.19
2018-06-28T17:12:23.785Z,102032.48
2018-06-28T17:15:28.232Z,102034.02
2018-06-28T17:18:32.625Z,102033.59
2018-06-28T17:21:37.033Z,102034.00
2018-06-28T17:24:41.450Z,102033.02
2018-06-28T17:27:45.881Z,102026.16
2018-06-28T17:30:50.274Z,102026.10
2018-06-28T17:33:54.648Z,102017.34
2018-06-28T17:36:59.084Z,102018.81
2018-06-28T17:40:03.522Z,102019.15
2018-06-28T17:43:07.949Z,102018.69
2018-06-28T17:46:12.300Z,102017.81
2018-06-28T17:49:16.700Z,102017.71
2018-06-28T17:52:21.076Z,102022.58
2018-06-28T17:55:26.516Z,102024.52
2018-06-28T17:58:30.883Z,102017.75
2018-06-28T18:01:35.270Z,102023.20
2018-06-28T18:04:39.654Z,102032.58
2018-06-28T18:07:44.013Z,102026.12
2018-06-28T18:10:48.418Z,102028.22
2018-06-28T18:13:52.524Z,102024.96
2018-06-28T18:16:56.911Z,102020.14
2018-06-28T18:20:01.330Z,102019.11
2018-06-28T18:23:05.737Z,102017.55
2018-06-28T18:26:10.293Z,102027.58
2018-06-28T18:29:14.672Z,102024.88
2018-06-28T18:32:19.232Z,102023.78
2018-06-28T18:35:23.598Z,102021.10
2018-06-28T18:38:28.164Z,102015.84
2018-06-28T18:41:32.463Z,102015.32
2018-06-28T18:44:36.893Z,102020.92
2018-06-28T18:47:41.266Z,102013.15
2018-06-28T18:50:45.673Z,102012.06
2018-06-28T18:53:50.057Z,102020.11
2018-06-28T18:56:54.460Z,102014.05
2018-06-28T18:59:58.900Z,102016.30
2018-06-28T19:03:03.269Z,102014.65
2018-06-28T19:06:07.677Z,102013.27
2018-06-28T19:09:13.005Z,102004.95
2018-06-28T19:12:17.408Z,102011.05
2018-06-28T19:15:26.820Z,102007.16
2018-06-28T19:18:31.210Z,102011.03
2018-06-28T19:21:40.850Z,102003.80
2018-06-28T19:24:45.306Z,102009.89
2018-06-28T19:27:49.705Z,102007.94
2018-06-28T19:30:59.295Z,102016.22
2018-06-28T19:34:03.690Z,102010.88
2018-06-28T19:37:11.470Z,102013.61
2018-06-28T19:40:21.048Z,102015.78
2018-06-28T19:43:25.437Z,102019.64
2018-06-28T19:46:29.800Z,102019.30
2018-06-28T19:49:39.345Z,102019.50
2018-06-28T19:52:48.993Z,102015.05
2018-06-28T19:55:53.366Z,102029.31
2018-06-28T19:58:57.750Z,102031.98
2018-06-28T20:02:07.472Z,102030.83
2018-06-28T20:05:11.865Z,102041.25
2018-06-28T20:08:16.261Z,102029.29
2018-06-28T20:11:20.661Z,102036.36
2018-06-28T20:14:30.331Z,102042.04
2018-06-28T20:17:39.833Z,102037.78
2018-06-28T20:20:44.224Z,102034.36
2018-06-28T20:23:48.625Z,102038.38
2018-06-28T20:26:58.288Z,102027.83
2018-06-28T20:30:07.861Z,102031.87
2018-06-28T20:33:17.387Z,102030.66
2018-06-28T20:36:21.767Z,102028.58
2018-06-28T20:39:26.133Z,102035.88
2018-06-28T20:42:30.494Z,102032.18
2018-06-28T20:45:34.875Z,102026.00
2018-06-28T20:48:39.265Z,102027.05
2018-06-28T20:51:43.677Z,102023.09
2018-06-28T20:54:48.168Z,102019.42
2018-06-28T20:57:52.579Z,102023.99
2018-06-28T21:00:56.989Z,102023.80
2018-06-28T21:04:01.369Z,102024.77
2018-06-28T21:07:05.770Z,102029.64
2018-06-28T21:10:10.132Z,102028.70
2018-06-28T21:13:14.520Z,102034.20
2018-06-28T21:16:18.918Z,102038.84
2018-06-28T21:19:23.326Z,102032.45
2018-06-28T21:22:27.697Z,102022.97
2018-06-28T21:25:32.101Z,102025.84
2018-06-28T21:28:36.488Z,102026.61
2018-06-28T21:31:40.889Z,102027.08
2018-06-28T21:34:45.404Z,102025.32
2018-06-28T21:37:49.770Z,102030.23
2018-06-28T21:40:54.147Z,102027.36
2018-06-28T21:43:58.561Z,102036.30
2018-06-28T21:47:03.025Z,102021.88
2018-06-28T21:50:07.417Z,102023.43
2018-06-28T21:53:11.801Z,102022.52
2018-06-28T21:56:16.201Z,102020.69
2018-06-28T21:59:20.588Z,102015.89
2018-06-28T22:02:24.973Z,102012.50
2018-06-28T22:05:29.571Z,102009.61
2018-06-28T22:08:33.960Z,102015.64
2018-06-28T22:11:38.365Z,102010.31
2018-06-28T22:14:42.749Z,102011.52
2018-06-28T22:17:47.133Z,102009.81
2018-06-28T22:20:51.525Z,102003.36
2018-06-28T22:23:55.921Z,101996.61
2018-06-28T22:27:00.289Z,101987.19
2018-06-28T22:30:04.819Z,101992.58
2018-06-28T22:33:09.199Z,101990.53
2018-06-28T22:36:13.615Z,101983.78
2018-06-28T22:39:17.994Z,101976.27
2018-06-28T22:42:22.369Z,101966.80
2018-06-28T22:45:26.787Z,101968.03
2018-06-28T22:48:31.168Z,101968.23
2018-06-28T22:51:35.560Z,101962.25
2018-06-28T22:54:39.929Z,101966.50
2018-06-28T22:57:44.352Z,101964.48
2018-06-28T23:00:48.760Z,101968.48
2018-06-28T23:03:53.216Z,101960.95
2018-06-28T23:06:57.639Z,101961.97
2018-06-28T23:10:02.057Z,101956.88
2018-06-28T23:13:06.477Z,101954.00
2018-06-28T23:16:10.888Z,101956.95
2018-06-28T23:19:15.328Z,101958.52
2018-06-28T23:22:35.256Z,101958.91
2018-06-28T23:25:39.680Z,101958.69
2018-06-28T23:28:44.072Z,101950.00
2018-06-28T23:31:48.469Z,101949.91
2018-06-28T23:34:52.858Z,101956.77
2018-06-28T23:37:57.281Z,101956.69
2018-06-28T23:41:01.409Z,101950.48
2018-06-28T23:44:06.434Z,101954.52
2018-06-28T23:47:10.801Z,101954.70
2018-06-28T23:50:15.216Z,101959.22
2018-06-28T23:53:19.608Z,101954.62
2018-06-28T23:56:23.989Z,101950.22
2018-06-28T23:59:28.391Z,101960.95
